Time;durP1;ratioP1;P1;durP2;ratioP2;P2;SDS_P1;SDS_P2;PMS_P1;PMS_P2;Temp;Humidity;BMP_temperature;BMP_pressure;BME280_temperature;BME280_humidity;BME280_pressure;Samples;Min_cycle;Max_cycle;Signal;HPM_P1;HPM_P2
2022/04/02 00:00:23;;;;;;;24.52;13.95;;;;;;;;;;4998942;28;20038;-79
2022/04/02 00:02:50;;;;;;;22.92;13.88;;;;;;;;;;4999293;28;20037;-79
2022/04/02 00:05:15;;;;;;;24.40;15.43;;;;;;;;;;4998807;28;20036;-79
2022/04/02 00:07:40;;;;;;;25.25;14.90;;;;;;;;;;4999273;28;20113;-79
2022/04/02 00:10:07;;;;;;;26.23;14.32;;;;;;;;;;5002118;28;20104;-79
2022/04/02 00:12:32;;;;;;;29.17;16.30;;;;;;;;;;5006800;28;20086;-80
2022/04/02 00:14:58;;;;;;;31.02;14.95;;;;;;;;;;4979677;28;20088;-79
2022/04/02 00:17:24;;;;;;;27.75;14.73;;;;;;;;;;5002600;28;20034;-79
2022/04/02 00:19:49;;;;;;;28.08;14.27;;;;;;;;;;5004769;28;20046;-81
2022/04/02 00:22:15;;;;;;;24.65;14.35;;;;;;;;;;5007349;28;20037;-80
2022/04/02 00:24:41;;;;;;;23.77;14.10;;;;;;;;;;5010170;28;20036;-81
2022/04/02 00:27:06;;;;;;;23.58;14.40;;;;;;;;;;5015212;28;20117;-80
2022/04/02 00:29:34;;;;;;;24.48;15.20;;;;;;;;;;5001154;28;20027;-81
2022/04/02 00:31:59;;;;;;;24.80;15.27;;;;;;;;;;5004486;28;20481;-81
2022/04/02 00:34:25;;;;;;;22.80;13.57;;;;;;;;;;4999445;28;20129;-80
2022/04/02 00:36:50;;;;;;;21.10;11.70;;;;;;;;;;4995989;28;20092;-80
2022/04/02 00:39:15;;;;;;;22.90;14.15;;;;;;;;;;4999750;28;20026;-80
2022/04/02 00:41:41;;;;;;;24.27;15.32;;;;;;;;;;5013220;28;20041;-82
2022/04/02 00:46:40;;;;;;;24.08;14.35;;;;;;;;;;5055455;22;20104;-83
2022/04/02 00:49:06;;;;;;;22.25;13.55;;;;;;;;;;5003798;28;20444;-82
2022/04/02 00:51:33;;;;;;;25.00;13.48;;;;;;;;;;5037011;28;20069;-83
2022/04/02 00:53:59;;;;;;;27.60;14.10;;;;;;;;;;5021969;28;20028;-82
2022/04/02 00:56:24;;;;;;;23.42;12.98;;;;;;;;;;5023572;28;20061;-82
2022/04/02 00:58:50;;;;;;;27.27;13.25;;;;;;;;;;5006684;28;20033;-82
2022/04/02 01:01:16;;;;;;;23.05;12.23;;;;;;;;;;5000727;28;20106;-83
2022/04/02 01:03:42;;;;;;;22.45;11.73;;;;;;;;;;5009843;28;20034;-83
2022/04/02 01:06:10;;;;;;;22.10;13.43;;;;;;;;;;5019191;28;20384;-81
2022/04/02 01:08:36;;;;;;;20.05;12.93;;;;;;;;;;5019393;28;20026;-83
2022/04/02 01:11:02;;;;;;;20.15;11.73;;;;;;;;;;5017976;28;20021;-82
2022/04/02 01:13:27;;;;;;;17.27;9.82;;;;;;;;;;5018662;28;20018;-82
2022/04/02 01:15:53;;;;;;;17.25;11.07;;;;;;;;;;5017282;28;20026;-82
2022/04/02 01:18:18;;;;;;;20.73;12.70;;;;;;;;;;5006943;28;20175;-83
2022/04/02 01:20:44;;;;;;;19.45;11.57;;;;;;;;;;4999669;28;20108;-82
2022/04/02 01:23:09;;;;;;;20.77;12.43;;;;;;;;;;5016850;28;20018;-84
2022/04/02 01:25:35;;;;;;;16.48;10.68;;;;;;;;;;5011793;28;20103;-82
2022/04/02 01:28:02;;;;;;;20.92;12.20;;;;;;;;;;5019110;28;20021;-82
2022/04/02 01:30:29;;;;;;;23.10;12.77;;;;;;;;;;5015922;28;20029;-81
2022/04/02 01:32:55;;;;;;;19.80;11.95;;;;;;;;;;5001392;28;20019;-83
2022/04/02 01:35:21;;;;;;;19.33;11.35;;;;;;;;;;5012743;28;20446;-84
2022/04/02 01:37:48;;;;;;;17.45;10.82;;;;;;;;;;5006590;28;20040;-84
2022/04/02 01:40:14;;;;;;;20.33;12.50;;;;;;;;;;5018095;28;20087;-83
2022/04/02 01:42:39;;;;;;;12.38;9.13;;;;;;;;;;5029674;28;20463;-83
2022/04/02 01:45:06;;;;;;;13.00;9.38;;;;;;;;;;5004552;28;20034;-82
2022/04/02 01:47:31;;;;;;;14.70;8.90;;;;;;;;;;5019543;28;20057;-83
2022/04/02 01:49:57;;;;;;;17.77;10.73;;;;;;;;;;4990161;28;20026;-84
2022/04/02 01:52:22;;;;;;;19.95;10.85;;;;;;;;;;5000491;28;20026;-83
2022/04/02 01:54:48;;;;;;;14.35;9.55;;;;;;;;;;5012649;28;20057;-83
2022/04/02 01:57:15;;;;;;;17.50;10.32;;;;;;;;;;5018366;28;20450;-83
2022/04/02 01:59:40;;;;;;;20.48;12.07;;;;;;;;;;5018304;28;20032;-83
2022/04/02 02:02:09;;;;;;;13.57;9.52;;;;;;;;;;5001461;28;20022;-83
2022/04/02 02:04:34;;;;;;;16.45;9.02;;;;;;;;;;5021698;28;20033;-82
2022/04/02 02:07:01;;;;;;;14.50;9.77;;;;;;;;;;5013272;28;20029;-83
2022/04/02 02:09:26;;;;;;;18.48;9.52;;;;;;;;;;4999405;28;20097;-83
2022/04/02 02:11:52;;;;;;;12.23;8.18;;;;;;;;;;5025803;28;20129;-83
2022/04/02 02:14:17;;;;;;;14.55;9.63;;;;;;;;;;4999338;28;20037;-82
2022/04/02 02:16:42;;;;;;;16.13;8.23;;;;;;;;;;5018329;28;20559;-83
2022/04/02 02:19:08;;;;;;;17.70;10.48;;;;;;;;;;5005688;23;20042;-81
2022/04/02 02:21:33;;;;;;;13.18;9.23;;;;;;;;;;5019139;28;20022;-81
2022/04/02 02:23:59;;;;;;;10.82;8.00;;;;;;;;;;5018791;28;20477;-79
2022/04/02 02:26:24;;;;;;;10.85;7.45;;;;;;;;;;5018940;28;20025;-81
2022/04/02 02:28:50;;;;;;;13.18;8.52;;;;;;;;;;5024507;28;20030;-79
2022/04/02 02:31:15;;;;;;;18.58;10.48;;;;;;;;;;5016763;28;20022;-79
2022/04/02 02:36:25;;;;;;;10.48;8.25;;;;;;;;;;5034399;28;20031;-79
2022/04/02 02:38:51;;;;;;;13.75;7.28;;;;;;;;;;5032897;28;20026;-79
2022/04/02 02:41:17;;;;;;;17.55;9.85;;;;;;;;;;5012487;28;20029;-79
2022/04/02 02:43:42;;;;;;;15.55;9.27;;;;;;;;;;5034848;28;20025;-79
2022/04/02 02:46:08;;;;;;;16.35;9.88;;;;;;;;;;5024350;28;20034;-79
2022/04/02 02:48:34;;;;;;;13.40;8.63;;;;;;;;;;5017283;28;20392;-79
2022/04/02 02:51:00;;;;;;;12.43;7.85;;;;;;;;;;5014466;28;20025;-79
2022/04/02 02:53:25;;;;;;;14.82;8.13;;;;;;;;;;5034945;28;20391;-78
2022/04/02 02:55:50;;;;;;;14.77;8.48;;;;;;;;;;5028039;28;20025;-79
2022/04/02 02:58:16;;;;;;;14.30;9.15;;;;;;;;;;5008859;28;20030;-80
2022/04/02 03:00:42;;;;;;;14.10;8.77;;;;;;;;;;5032961;28;20032;-80
2022/04/02 03:03:09;;;;;;;15.93;8.05;;;;;;;;;;5035428;28;20032;-80
2022/04/02 03:05:35;;;;;;;10.07;7.22;;;;;;;;;;5034414;28;20034;-79
2022/04/02 03:08:01;;;;;;;13.60;9.35;;;;;;;;;;5015301;28;20428;-79
2022/04/02 03:10:27;;;;;;;15.50;10.07;;;;;;;;;;5016290;28;20083;-80
2022/04/02 03:12:55;;;;;;;15.95;10.32;;;;;;;;;;5018778;28;20466;-80
2022/04/02 03:15:21;;;;;;;12.70;8.43;;;;;;;;;;5018615;28;20025;-80
2022/04/02 03:17:48;;;;;;;15.70;10.35;;;;;;;;;;5018745;28;20030;-80
2022/04/02 03:20:15;;;;;;;16.35;10.27;;;;;;;;;;5017573;28;20121;-80
2022/04/02 03:22:43;;;;;;;14.70;8.23;;;;;;;;;;5015081;28;20042;-80
2022/04/02 03:25:11;;;;;;;16.25;9.98;;;;;;;;;;5012844;28;20508;-79
2022/04/02 03:27:38;;;;;;;15.75;8.85;;;;;;;;;;5024090;28;20024;-79
2022/04/02 03:30:05;;;;;;;19.77;8.68;;;;;;;;;;5028858;28;20109;-79
2022/04/02 03:32:31;;;;;;;15.20;8.95;;;;;;;;;;5016771;28;20021;-79
2022/04/02 03:34:57;;;;;;;15.85;8.93;;;;;;;;;;5019628;28;20036;-80
2022/04/02 03:37:24;;;;;;;15.90;8.10;;;;;;;;;;5010911;28;20037;-79
2022/04/02 03:39:50;;;;;;;14.82;8.60;;;;;;;;;;5013122;28;20041;-79
2022/04/02 03:42:16;;;;;;;10.63;6.93;;;;;;;;;;5024436;28;20044;-79
2022/04/02 03:44:41;;;;;;;9.18;6.55;;;;;;;;;;5027398;28;20026;-79
2022/04/02 03:47:10;;;;;;;12.60;7.80;;;;;;;;;;5013591;28;20506;-78
2022/04/02 03:49:40;;;;;;;15.10;8.40;;;;;;;;;;4999918;28;20397;-79
2022/04/02 03:52:07;;;;;;;19.65;9.95;;;;;;;;;;5026786;28;20113;-79
2022/04/02 03:54:35;;;;;;;16.15;8.50;;;;;;;;;;5017684;28;20030;-79
2022/04/02 03:57:05;;;;;;;10.27;7.55;;;;;;;;;;5019551;28;20022;-79
2022/04/02 03:59:31;;;;;;;18.67;9.80;;;;;;;;;;5035018;28;20021;-79
2022/04/02 04:01:57;;;;;;;17.85;9.70;;;;;;;;;;5018189;28;20065;-79
2022/04/02 04:04:24;;;;;;;11.48;8.77;;;;;;;;;;5016861;28;20137;-79
2022/04/02 04:06:50;;;;;;;14.82;9.65;;;;;;;;;;5021195;28;20045;-79
2022/04/02 04:09:15;;;;;;;14.68;9.48;;;;;;;;;;5027057;28;20030;-79
2022/04/02 04:11:41;;;;;;;17.23;8.00;;;;;;;;;;5009066;28;20065;-79
2022/04/02 04:14:06;;;;;;;11.10;7.75;;;;;;;;;;5017692;28;20032;-79
2022/04/02 04:16:32;;;;;;;15.40;8.23;;;;;;;;;;5016838;28;20088;-78
2022/04/02 04:18:57;;;;;;;11.98;7.60;;;;;;;;;;5018889;28;20033;-80
2022/04/02 04:21:24;;;;;;;9.90;6.78;;;;;;;;;;5033027;28;20068;-80
2022/04/02 04:23:50;;;;;;;12.48;6.72;;;;;;;;;;5032122;28;20041;-80
2022/04/02 04:26:16;;;;;;;10.40;5.72;;;;;;;;;;5031745;28;20036;-80
2022/04/02 04:28:42;;;;;;;7.10;5.13;;;;;;;;;;5023456;28;20025;-80
2022/04/02 04:31:07;;;;;;;10.93;7.05;;;;;;;;;;5017387;28;20063;-80
2022/04/02 04:33:35;;;;;;;11.30;7.68;;;;;;;;;;5016808;28;20078;-79
2022/04/02 04:36:01;;;;;;;15.88;8.32;;;;;;;;;;4998816;28;20048;-80
2022/04/02 04:38:26;;;;;;;12.63;7.78;;;;;;;;;;5020988;28;20484;-80
2022/04/02 04:40:52;;;;;;;13.75;8.50;;;;;;;;;;5031485;28;20072;-80
2022/04/02 04:43:17;;;;;;;13.60;9.77;;;;;;;;;;5019709;28;20026;-80
2022/04/02 04:45:43;;;;;;;14.15;8.43;;;;;;;;;;5016814;28;20032;-80
2022/04/02 04:48:08;;;;;;;14.32;5.72;;;;;;;;;;5019111;28;20029;-80
2022/04/02 04:50:35;;;;;;;20.83;9.30;;;;;;;;;;5024596;28;20061;-80
2022/04/02 04:53:01;;;;;;;13.65;8.52;;;;;;;;;;5033468;28;20017;-79
2022/04/02 04:55:26;;;;;;;12.85;8.55;;;;;;;;;;5006972;28;20030;-78
2022/04/02 04:57:51;;;;;;;16.17;8.88;;;;;;;;;;5026949;28;20026;-80
2022/04/02 05:00:17;;;;;;;14.57;8.90;;;;;;;;;;5037090;28;20404;-79
2022/04/02 05:02:44;;;;;;;12.60;7.93;;;;;;;;;;5017413;28;20025;-79
2022/04/02 05:05:13;;;;;;;11.82;8.32;;;;;;;;;;5019101;28;20041;-79
2022/04/02 05:07:40;;;;;;;11.05;7.68;;;;;;;;;;5029337;28;20484;-79
2022/04/02 05:10:07;;;;;;;16.83;8.65;;;;;;;;;;5041225;28;20029;-79
2022/04/02 05:12:33;;;;;;;9.13;6.25;;;;;;;;;;5041366;28;20425;-79
2022/04/02 05:14:58;;;;;;;11.68;7.45;;;;;;;;;;5021259;28;20037;-80
2022/04/02 05:17:24;;;;;;;12.10;9.07;;;;;;;;;;5020572;28;20053;-79
2022/04/02 05:19:49;;;;;;;15.98;7.88;;;;;;;;;;5035765;28;20048;-79
2022/04/02 05:22:15;;;;;;;12.02;8.13;;;;;;;;;;5050728;28;20021;-78
2022/04/02 05:24:41;;;;;;;14.02;8.88;;;;;;;;;;5050462;28;20029;-79
2022/04/02 05:27:06;;;;;;;13.05;9.07;;;;;;;;;;5037017;28;20338;-78
2022/04/02 05:29:31;;;;;;;14.05;8.70;;;;;;;;;;5042576;28;20095;-78
2022/04/02 05:31:57;;;;;;;10.13;7.45;;;;;;;;;;5034794;28;20022;-79
2022/04/02 05:34:22;;;;;;;15.52;9.02;;;;;;;;;;5013997;28;20030;-79
2022/04/02 05:36:47;;;;;;;12.23;8.75;;;;;;;;;;5017520;28;20061;-81
2022/04/02 05:39:13;;;;;;;12.77;9.05;;;;;;;;;;5006221;28;20377;-81
2022/04/02 05:41:39;;;;;;;13.75;8.13;;;;;;;;;;5005795;28;20030;-82
2022/04/02 05:44:06;;;;;;;18.58;9.18;;;;;;;;;;5023391;28;20029;-80
2022/04/02 05:46:32;;;;;;;9.35;7.15;;;;;;;;;;5018807;28;20025;-79
2022/04/02 05:48:58;;;;;;;12.10;7.45;;;;;;;;;;5029848;28;20507;-80
2022/04/02 05:51:23;;;;;;;11.88;7.95;;;;;;;;;;5019881;28;20029;-79
2022/04/02 05:53:49;;;;;;;11.43;7.63;;;;;;;;;;4998529;28;20061;-80
2022/04/02 05:59:43;;;;;;;10.27;6.47;;;;;;;;;;5035070;28;20044;-81
2022/04/02 06:02:10;;;;;;;11.32;8.05;;;;;;;;;;5040543;28;20104;-81
2022/04/02 06:04:37;;;;;;;11.38;7.68;;;;;;;;;;5034031;28;20026;-81
2022/04/02 06:07:03;;;;;;;15.05;8.05;;;;;;;;;;5039253;28;20037;-78
2022/04/02 06:09:28;;;;;;;11.50;7.45;;;;;;;;;;5007164;28;20408;-79
2022/04/02 06:11:57;;;;;;;11.77;7.22;;;;;;;;;;5031653;28;20029;-80
2022/04/02 06:14:22;;;;;;;9.88;6.70;;;;;;;;;;5026049;28;20089;-79
2022/04/02 06:16:48;;;;;;;10.00;6.63;;;;;;;;;;5017575;28;20061;-79
2022/04/02 06:19:17;;;;;;;8.77;5.57;;;;;;;;;;5032325;28;20033;-82
2022/04/02 06:21:43;;;;;;;14.68;8.38;;;;;;;;;;5033011;28;20037;-82
2022/04/02 06:26:38;;;;;;;9.82;7.10;;;;;;;;;;5009772;23;20384;-82
2022/04/02 06:29:04;;;;;;;8.98;5.97;;;;;;;;;;5002857;28;20518;-81
2022/04/02 06:31:29;;;;;;;10.57;6.93;;;;;;;;;;4996566;28;20036;-83
2022/04/02 06:33:54;;;;;;;9.80;6.85;;;;;;;;;;5000510;28;21251;-82
2022/04/02 06:36:21;;;;;;;10.32;5.53;;;;;;;;;;4996985;28;20100;-83
2022/04/02 06:38:46;;;;;;;7.88;5.85;;;;;;;;;;5000392;28;20026;-82
2022/04/02 06:41:11;;;;;;;7.47;4.95;;;;;;;;;;5000019;28;20097;-80
2022/04/02 06:43:37;;;;;;;6.13;4.13;;;;;;;;;;4999556;28;20031;-82
2022/04/02 06:46:02;;;;;;;8.48;5.63;;;;;;;;;;4999730;28;20026;-83
2022/04/02 06:48:27;;;;;;;5.93;4.63;;;;;;;;;;5006970;28;20475;-83
2022/04/02 06:50:53;;;;;;;8.63;5.38;;;;;;;;;;5007648;28;20036;-82
2022/04/02 06:53:19;;;;;;;6.65;4.55;;;;;;;;;;4999236;28;20030;-83
2022/04/02 06:55:45;;;;;;;5.20;4.00;;;;;;;;;;4996406;28;20465;-83
2022/04/02 06:58:24;;;;;;;4.72;4.20;;;;;;;;;;5015175;28;20026;-82
2022/04/02 07:00:49;;;;;;;6.40;4.75;;;;;;;;;;5008198;28;20069;-81
2022/04/02 07:03:15;;;;;;;9.93;5.95;;;;;;;;;;4997257;28;20058;-81
2022/04/02 07:05:40;;;;;;;9.07;5.68;;;;;;;;;;4996908;28;20057;-81
2022/04/02 07:08:07;;;;;;;8.70;5.60;;;;;;;;;;4998053;28;20050;-83
2022/04/02 07:10:32;;;;;;;4.25;3.17;;;;;;;;;;4999510;28;20093;-84
2022/04/02 07:12:57;;;;;;;7.82;5.68;;;;;;;;;;4999571;28;20030;-84
2022/04/02 07:15:23;;;;;;;2.28;1.90;;;;;;;;;;4999902;28;20035;-83
2022/04/02 07:17:49;;;;;;;8.60;6.00;;;;;;;;;;5002761;28;20492;-82
2022/04/02 07:20:18;;;;;;;5.43;3.47;;;;;;;;;;5010716;28;20408;-84
2022/04/02 07:22:44;;;;;;;7.38;4.72;;;;;;;;;;5006739;28;20567;-83
2022/04/02 07:25:12;;;;;;;9.27;5.57;;;;;;;;;;4998666;28;20041;-83
2022/04/02 07:27:38;;;;;;;9.88;6.28;;;;;;;;;;5008847;28;20030;-84
2022/04/02 07:30:04;;;;;;;9.18;5.13;;;;;;;;;;4989142;28;20023;-85
2022/04/02 07:32:30;;;;;;;6.20;4.55;;;;;;;;;;4981892;28;20026;-84
2022/04/02 07:34:55;;;;;;;8.85;6.05;;;;;;;;;;5001251;28;20037;-85
2022/04/02 07:37:37;;;;;;;13.52;6.55;;;;;;;;;;4999137;28;20026;-85
2022/04/02 07:40:19;;;;;;;7.88;5.75;;;;;;;;;;4997229;28;20034;-83
2022/04/02 07:43:23;;;;;;;6.68;4.63;;;;;;;;;;5001138;28;20050;-83
2022/04/02 07:45:58;;;;;;;9.30;5.93;;;;;;;;;;4992603;28;20049;-83
2022/04/02 07:48:25;;;;;;;6.40;5.35;;;;;;;;;;4989694;28;20080;-86
2022/04/02 07:50:51;;;;;;;8.98;5.82;;;;;;;;;;4982214;28;20019;-85
2022/04/02 07:53:22;;;;;;;5.93;4.63;;;;;;;;;;4980806;28;20105;-86
2022/04/02 07:55:56;;;;;;;7.15;4.63;;;;;;;;;;5001035;28;20026;-84
2022/04/02 07:58:31;;;;;;;10.35;6.47;;;;;;;;;;5019119;28;20022;-85
2022/04/02 08:00:59;;;;;;;4.90;3.78;;;;;;;;;;5011872;28;20060;-85
2022/04/02 08:03:25;;;;;;;14.20;6.22;;;;;;;;;;4999429;28;20098;-86
2022/04/02 08:05:55;;;;;;;5.68;4.32;;;;;;;;;;5000208;28;20453;-85
2022/04/02 08:08:23;;;;;;;7.55;4.95;;;;;;;;;;4999795;28;20010;-84
2022/04/02 08:10:51;;;;;;;5.80;3.58;;;;;;;;;;5000299;28;20026;-85
2022/04/02 08:13:17;;;;;;;3.78;3.00;;;;;;;;;;5000285;28;20034;-85
2022/04/02 08:15:43;;;;;;;9.27;5.80;;;;;;;;;;4999376;28;20022;-85
2022/04/02 08:18:08;;;;;;;8.35;4.20;;;;;;;;;;4995125;28;20033;-85
2022/04/02 08:20:33;;;;;;;7.13;4.68;;;;;;;;;;4999323;28;20022;-86
2022/04/02 08:23:01;;;;;;;6.38;3.72;;;;;;;;;;5000118;28;20406;-87
2022/04/02 08:25:27;;;;;;;8.85;6.03;;;;;;;;;;4998679;28;20032;-87
2022/04/02 08:28:06;;;;;;;7.68;5.65;;;;;;;;;;5008919;28;20032;-89
2022/04/02 08:30:34;;;;;;;5.00;3.10;;;;;;;;;;4999368;28;20042;-88
2022/04/02 08:33:15;;;;;;;8.30;6.13;;;;;;;;;;4995130;28;20018;-85
2022/04/02 08:35:55;;;;;;;8.48;5.07;;;;;;;;;;5000402;28;20026;-87
2022/04/02 08:38:33;;;;;;;9.10;5.28;;;;;;;;;;5005912;28;20026;-88
2022/04/02 08:41:04;;;;;;;6.90;4.85;;;;;;;;;;5011449;28;20029;-88
2022/04/02 08:43:59;;;;;;;6.57;5.10;;;;;;;;;;4994588;28;20030;-88
2022/04/02 08:46:52;;;;;;;3.35;2.95;;;;;;;;;;5005691;28;20030;-87
2022/04/02 08:49:36;;;;;;;5.75;3.70;;;;;;;;;;5005640;28;20041;-88
2022/04/02 08:52:19;;;;;;;6.22;3.85;;;;;;;;;;4996470;28;20090;-85
2022/04/02 08:55:07;;;;;;;9.25;5.70;;;;;;;;;;4990576;28;20036;-86
2022/04/02 08:57:41;;;;;;;8.43;6.40;;;;;;;;;;5003599;28;20084;-85
2022/04/02 09:00:09;;;;;;;5.72;4.18;;;;;;;;;;5004334;28;20038;-83
2022/04/02 09:02:53;;;;;;;9.95;6.55;;;;;;;;;;5005676;28;20022;-84
2022/04/02 09:05:32;;;;;;;2.13;2.00;;;;;;;;;;4995854;28;20030;-87
2022/04/02 09:08:06;;;;;;;13.68;7.05;;;;;;;;;;5006288;28;20041;-85
2022/04/02 09:11:09;;;;;;;8.07;5.28;;;;;;;;;;5014694;28;20042;-86
2022/04/02 09:14:03;;;;;;;5.03;3.42;;;;;;;;;;4941724;28;20519;-88
2022/04/02 09:16:36;;;;;;;7.28;4.93;;;;;;;;;;4969598;28;20120;-87
2022/04/02 09:19:07;;;;;;;13.05;7.22;;;;;;;;;;5006340;28;20034;-85
2022/04/02 09:21:54;;;;;;;13.40;6.93;;;;;;;;;;5003298;28;20052;-86
2022/04/02 09:24:25;;;;;;;7.03;4.60;;;;;;;;;;4996021;28;20035;-83
2022/04/02 09:27:19;;;;;;;6.93;5.05;;;;;;;;;;5007846;28;20045;-87
2022/04/02 09:29:57;;;;;;;7.68;4.88;;;;;;;;;;4982767;28;20050;-85
2022/04/02 09:32:25;;;;;;;9.60;6.15;;;;;;;;;;5008113;28;20029;-88
2022/04/02 09:35:15;;;;;;;5.65;3.03;;;;;;;;;;5017081;28;20025;-83
2022/04/02 09:38:02;;;;;;;14.18;6.72;;;;;;;;;;4981216;28;20110;-85
2022/04/02 09:40:42;;;;;;;9.48;6.55;;;;;;;;;;4995890;28;20030;-85
2022/04/02 09:43:26;;;;;;;8.07;6.25;;;;;;;;;;4998372;28;20026;-85
2022/04/02 09:46:30;;;;;;;8.07;4.53;;;;;;;;;;4994131;28;20034;-86
2022/04/02 09:49:14;;;;;;;10.30;6.20;;;;;;;;;;4997250;28;20129;-86
2022/04/02 09:51:49;;;;;;;4.00;2.70;;;;;;;;;;5008710;28;20638;-86
2022/04/02 09:54:34;;;;;;;7.57;5.25;;;;;;;;;;4993943;28;20503;-84
2022/04/02 09:57:13;;;;;;;7.90;5.90;;;;;;;;;;5002441;28;20472;-87
2022/04/02 09:59:56;;;;;;;6.30;4.25;;;;;;;;;;5012938;28;20077;-84
2022/04/02 10:02:59;;;;;;;7.43;4.45;;;;;;;;;;5002162;28;20030;-86
2022/04/02 10:06:06;;;;;;;7.32;5.57;;;;;;;;;;5007984;28;20030;-87
2022/04/02 10:08:32;;;;;;;12.70;6.97;;;;;;;;;;4973677;28;20047;-86
2022/04/02 10:11:02;;;;;;;7.38;5.32;;;;;;;;;;5003026;28;20089;-85
2022/04/02 10:13:30;;;;;;;11.55;7.53;;;;;;;;;;5018882;28;20018;-87
2022/04/02 10:15:59;;;;;;;12.57;7.22;;;;;;;;;;4995952;28;20041;-88
2022/04/02 10:18:26;;;;;;;11.38;6.15;;;;;;;;;;5000827;28;20034;-87
2022/04/02 10:20:52;;;;;;;12.13;7.53;;;;;;;;;;5002541;28;20098;-86
2022/04/02 10:23:24;;;;;;;3.80;3.17;;;;;;;;;;5010270;28;20467;-86
2022/04/02 10:26:12;;;;;;;7.03;5.10;;;;;;;;;;4985617;28;20038;-87
2022/04/02 10:28:58;;;;;;;14.63;5.40;;;;;;;;;;5000230;28;20038;-87
2022/04/02 10:31:40;;;;;;;6.45;4.82;;;;;;;;;;4991252;28;20079;-87
2022/04/02 10:34:09;;;;;;;15.05;7.28;;;;;;;;;;4993228;28;20089;-86
2022/04/02 10:36:48;;;;;;;6.13;4.45;;;;;;;;;;4991213;28;20061;-85
2022/04/02 10:39:15;;;;;;;11.95;6.65;;;;;;;;;;4995029;28;20088;-85
2022/04/02 10:41:44;;;;;;;9.45;6.47;;;;;;;;;;4988086;28;20030;-84
2022/04/02 10:44:18;;;;;;;13.00;7.25;;;;;;;;;;4989128;28;20026;-85
2022/04/02 10:46:48;;;;;;;6.65;4.07;;;;;;;;;;4997547;28;20053;-86
2022/04/02 10:49:24;;;;;;;9.65;4.25;;;;;;;;;;5003498;28;20038;-87
2022/04/02 10:51:54;;;;;;;11.27;6.97;;;;;;;;;;5003363;28;20022;-85
2022/04/02 10:54:27;;;;;;;10.48;6.00;;;;;;;;;;4999084;28;20026;-86
2022/04/02 10:56:53;;;;;;;5.95;4.18;;;;;;;;;;4998536;28;20125;-86
2022/04/02 10:59:19;;;;;;;10.05;5.38;;;;;;;;;;5009446;28;20037;-86
2022/04/02 11:01:49;;;;;;;11.93;6.75;;;;;;;;;;5019286;28;20022;-86
2022/04/02 11:04:48;;;;;;;10.55;6.10;;;;;;;;;;5024421;28;20089;-85
2022/04/02 11:07:26;;;;;;;6.28;4.50;;;;;;;;;;5019533;28;20109;-86
2022/04/02 11:09:52;;;;;;;5.05;3.95;;;;;;;;;;5013398;28;20026;-85
2022/04/02 11:12:19;;;;;;;11.75;6.00;;;;;;;;;;5017544;28;20079;-87
2022/04/02 11:14:49;;;;;;;10.88;7.10;;;;;;;;;;5019840;28;20040;-86
2022/04/02 11:17:33;;;;;;;11.60;6.63;;;;;;;;;;5018306;28;20471;-85
2022/04/02 11:20:07;;;;;;;10.55;7.32;;;;;;;;;;5011628;28;20121;-84
2022/04/02 11:22:46;;;;;;;7.93;5.45;;;;;;;;;;5021387;28;20050;-85
2022/04/02 11:25:34;;;;;;;9.32;4.95;;;;;;;;;;5001675;28;20037;-86
2022/04/02 11:28:08;;;;;;;9.98;6.93;;;;;;;;;;5017421;28;20026;-84
2022/04/02 11:30:58;;;;;;;10.25;6.90;;;;;;;;;;5016318;28;20025;-87
2022/04/02 11:33:25;;;;;;;9.65;6.88;;;;;;;;;;4990925;28;20038;-87
2022/04/02 11:35:51;;;;;;;9.10;6.15;;;;;;;;;;5019026;28;20025;-86
2022/04/02 11:38:23;;;;;;;9.98;6.53;;;;;;;;;;5011492;28;20510;-87
2022/04/02 11:41:01;;;;;;;;;;;;;;;;;;5001180;28;20030;-87
2022/04/02 11:43:36;;;;;;;5.80;3.72;;;;;;;;;;5000685;28;19977;-86
2022/04/02 11:46:03;;;;;;;9.20;6.47;;;;;;;;;;5019129;28;20549;-85
2022/04/02 11:48:35;;;;;;;11.77;8.57;;;;;;;;;;5017019;28;20112;-85
2022/04/02 11:51:17;;;;;;;9.68;6.82;;;;;;;;;;5017395;28;20021;-86
2022/04/02 11:53:44;;;;;;;12.68;8.00;;;;;;;;;;5019727;28;20029;-85
2022/04/02 11:56:23;;;;;;;8.52;5.13;;;;;;;;;;5022454;28;20014;-83
2022/04/02 11:58:50;;;;;;;18.38;9.63;;;;;;;;;;5011660;28;20081;-85
2022/04/02 12:01:19;;;;;;;12.13;9.60;;;;;;;;;;5012389;28;20021;-86
2022/04/02 12:03:44;;;;;;;12.95;8.30;;;;;;;;;;5011308;28;20052;-86
2022/04/02 12:06:11;;;;;;;21.50;11.57;;;;;;;;;;5012259;28;20424;-85
2022/04/02 12:08:41;;;;;;;17.10;9.35;;;;;;;;;;5002113;28;20032;-85
2022/04/02 12:11:09;;;;;;;9.55;6.50;;;;;;;;;;5018608;28;20026;-86
2022/04/02 12:13:35;;;;;;;9.35;5.72;;;;;;;;;;5003616;28;20022;-86
2022/04/02 12:16:05;;;;;;;11.40;6.95;;;;;;;;;;5020068;28;20080;-85
2022/04/02 12:18:32;;;;;;;8.15;5.30;;;;;;;;;;5004904;28;20510;-85
2022/04/02 12:21:07;;;;;;;10.75;6.70;;;;;;;;;;5011818;28;20030;-85
2022/04/02 12:23:33;;;;;;;13.35;8.82;;;;;;;;;;5016726;28;20025;-84
2022/04/02 12:26:00;;;;;;;11.82;7.15;;;;;;;;;;5016802;28;20030;-84
2022/04/02 12:28:26;;;;;;;8.75;5.70;;;;;;;;;;5016807;28;20040;-84
2022/04/02 12:31:01;;;;;;;5.60;4.65;;;;;;;;;;5016304;28;20030;-85
2022/04/02 12:33:28;;;;;;;11.80;7.07;;;;;;;;;;5017177;28;20022;-87
2022/04/02 12:36:07;;;;;;;14.90;9.02;;;;;;;;;;5016927;28;20018;-84
2022/04/02 12:38:35;;;;;;;12.40;7.20;;;;;;;;;;5017230;28;20049;-87
2022/04/02 12:41:02;;;;;;;21.08;9.95;;;;;;;;;;5001595;28;20034;-84
2022/04/02 12:43:33;;;;;;;12.98;8.65;;;;;;;;;;4998653;28;20023;-86
2022/04/02 12:46:00;;;;;;;13.43;9.10;;;;;;;;;;4997372;28;20033;-86
2022/04/02 12:48:26;;;;;;;14.32;9.73;;;;;;;;;;5005898;28;20103;-85
2022/04/02 12:51:01;;;;;;;10.00;6.05;;;;;;;;;;5011988;28;20030;-84
2022/04/02 12:53:32;;;;;;;12.05;6.68;;;;;;;;;;5003812;28;20022;-86
2022/04/02 12:56:00;;;;;;;16.83;6.53;;;;;;;;;;5011107;28;20022;-85
2022/04/02 12:58:53;;;;;;;10.30;6.20;;;;;;;;;;5014970;28;20573;-85
2022/04/02 13:01:42;;;;;;;11.05;6.85;;;;;;;;;;5013257;28;20033;-87
2022/04/02 13:04:10;;;;;;;12.18;8.73;;;;;;;;;;5017279;28;20038;-87
2022/04/02 13:06:46;;;;;;;11.60;7.22;;;;;;;;;;5001413;28;20028;-87
2022/04/02 13:09:17;;;;;;;7.70;6.10;;;;;;;;;;5017531;28;20105;-87
2022/04/02 13:11:48;;;;;;;11.77;6.97;;;;;;;;;;5017304;28;20081;-86
2022/04/02 13:14:17;;;;;;;9.07;6.15;;;;;;;;;;5014355;28;20387;-87
2022/04/02 13:16:45;;;;;;;13.82;7.60;;;;;;;;;;5018634;28;20030;-85
2022/04/02 13:22:13;;;;;;;14.98;9.07;;;;;;;;;;5000744;28;20068;-87
2022/04/02 13:24:52;;;;;;;14.65;8.20;;;;;;;;;;5009464;28;20030;-84
2022/04/02 13:27:27;;;;;;;14.90;7.97;;;;;;;;;;4999187;28;20479;-88
2022/04/02 13:30:01;;;;;;;16.67;10.38;;;;;;;;;;4991588;28;20022;-86
2022/04/02 13:33:04;;;;;;;10.50;7.38;;;;;;;;;;4997959;28;20411;-86
2022/04/02 13:35:42;;;;;;;;;;;;;;;;;;4997523;28;20041;-87
2022/04/02 13:38:48;;;;;;;10.85;6.65;;;;;;;;;;5006473;28;20021;-87
2022/04/02 13:41:24;;;;;;;7.57;4.97;;;;;;;;;;4987121;28;20440;-87
2022/04/02 13:43:54;;;;;;;15.13;6.75;;;;;;;;;;4994886;28;20539;-86
2022/04/02 13:46:52;;;;;;;9.23;6.47;;;;;;;;;;4996182;28;20034;-86
2022/04/02 13:49:28;;;;;;;10.57;7.25;;;;;;;;;;5004411;28;20030;-87
2022/04/02 13:52:06;;;;;;;11.68;8.25;;;;;;;;;;5004857;28;20014;-86
2022/04/02 13:54:41;;;;;;;8.25;5.40;;;;;;;;;;5007076;28;20041;-85
2022/04/02 13:57:12;;;;;;;13.40;8.55;;;;;;;;;;5001270;28;20087;-86
2022/04/02 14:00:12;;;;;;;10.77;7.03;;;;;;;;;;5000010;28;20038;-86
2022/04/02 14:02:51;;;;;;;11.90;7.95;;;;;;;;;;4997662;28;20030;-86
2022/04/02 14:05:21;;;;;;;14.88;7.72;;;;;;;;;;4994049;28;20045;-86
2022/04/02 14:08:14;;;;;;;9.85;7.32;;;;;;;;;;4989808;28;20132;-85
2022/04/02 14:10:54;;;;;;;14.68;9.68;;;;;;;;;;4997158;28;20038;-85
2022/04/02 14:13:24;;;;;;;15.20;9.50;;;;;;;;;;4998840;28;20388;-86
2022/04/02 14:15:54;;;;;;;22.65;11.50;;;;;;;;;;4993998;28;20030;-85
2022/04/02 14:18:23;;;;;;;14.18;8.32;;;;;;;;;;5014492;28;20452;-83
2022/04/02 14:21:00;;;;;;;18.48;9.07;;;;;;;;;;4999036;28;20031;-86
2022/04/02 14:23:33;;;;;;;11.43;8.00;;;;;;;;;;4991043;23;20493;-85
2022/04/02 14:26:33;;;;;;;19.10;11.43;;;;;;;;;;4978655;28;20030;-83
2022/04/02 14:29:23;;;;;;;15.60;10.30;;;;;;;;;;4980338;28;20041;-86
2022/04/02 14:32:24;;;;;;;12.82;9.30;;;;;;;;;;4980557;28;20094;-88
2022/04/02 14:35:20;;;;;;;14.75;9.52;;;;;;;;;;4977329;28;20117;-85
2022/04/02 14:38:23;;;;;;;16.30;8.93;;;;;;;;;;4996132;28;20034;-88
2022/04/02 14:41:09;;;;;;;21.13;10.55;;;;;;;;;;4997633;28;20109;-86
2022/04/02 14:43:46;;;;;;;13.15;8.88;;;;;;;;;;4995723;28;20054;-88
2022/04/02 14:46:49;;;;;;;11.77;8.32;;;;;;;;;;4969281;28;20121;-84
2022/04/02 14:49:42;;;;;;;15.95;9.50;;;;;;;;;;5006177;28;20046;-86
2022/04/02 14:52:13;;;;;;;;;;;;;;;;;;4987679;28;20068;-87
2022/04/02 14:54:57;;;;;;;10.68;8.43;;;;;;;;;;5003236;28;20918;-87
2022/04/02 14:58:00;;;;;;;18.27;11.55;;;;;;;;;;4982325;28;20022;-87
2022/04/02 15:00:25;;;;;;;;;;;;;;;;;;4980716;28;20045;-87
2022/04/02 15:03:28;;;;;;;13.57;9.05;;;;;;;;;;4999431;28;19918;-86
2022/04/02 15:05:56;;;;;;;;;;;;;;;;;;4982512;28;20041;-86
2022/04/02 15:08:57;;;;;;;12.40;8.13;;;;;;;;;;4983196;28;19913;-86
2022/04/02 15:11:26;;;;;;;13.32;8.95;;;;;;;;;;4983521;28;20018;-87